createdAt,value
2023-05-17T00:01:00.910Z,10.90
2023-05-17T00:03:27.741Z,10.90
2023-05-17T00:05:54.789Z,10.90
2023-05-17T00:08:21.656Z,10.90
2023-05-17T00:10:48.579Z,10.80
2023-05-17T00:13:15.423Z,10.80
2023-05-17T00:15:42.227Z,10.80
2023-05-17T00:18:09.165Z,10.70
2023-05-17T00:20:36.736Z,10.70
2023-05-17T00:23:04.204Z,10.70
2023-05-17T00:25:31.452Z,10.70
2023-05-17T00:27:58.462Z,10.70
2023-05-17T00:30:25.426Z,10.60
2023-05-17T00:32:52.691Z,10.60
2023-05-17T00:35:19.648Z,10.60
2023-05-17T00:37:48.344Z,10.60
2023-05-17T00:40:18.797Z,10.50
2023-05-17T00:42:45.919Z,10.50
2023-05-17T00:45:12.782Z,10.50
2023-05-17T00:47:39.792Z,10.40
2023-05-17T00:50:07.803Z,10.40
2023-05-17T00:52:35.891Z,10.30
2023-05-17T00:55:03.572Z,10.30
2023-05-17T00:57:32.230Z,10.40
2023-05-17T00:59:59.866Z,10.30
2023-05-17T01:02:26.875Z,10.30
2023-05-17T01:04:54.011Z,10.20
2023-05-17T01:07:20.933Z,10.10
2023-05-17T01:09:48.109Z,10.10
2023-05-17T01:12:36.248Z,10.10
2023-05-17T01:15:28.560Z,10.10
2023-05-17T01:18:17.599Z,10.00
2023-05-17T01:20:47.639Z,10.00
2023-05-17T01:23:48.811Z,10.00
2023-05-17T01:26:41.617Z,10.10
2023-05-17T01:29:09.997Z,10.00
2023-05-17T01:31:37.710Z,10.00
2023-05-17T01:34:10.586Z,9.90
2023-05-17T01:36:37.483Z,9.90
2023-05-17T01:39:04.439Z,9.90
2023-05-17T01:41:43.425Z,9.70
2023-05-17T01:44:25.260Z,9.70
2023-05-17T01:46:58.905Z,9.60
2023-05-17T01:49:31.243Z,9.60
2023-05-17T01:52:07.932Z,9.50
2023-05-17T01:54:50.855Z,9.50
2023-05-17T01:57:22.805Z,9.60
2023-05-17T01:59:51.822Z,9.50
2023-05-17T02:02:18.986Z,9.60
2023-05-17T02:04:45.915Z,9.60
2023-05-17T02:07:12.843Z,9.60
2023-05-17T02:09:39.954Z,9.50
2023-05-17T02:12:07.471Z,9.40
2023-05-17T02:14:34.309Z,9.40
2023-05-17T02:17:01.582Z,9.40
2023-05-17T02:19:28.586Z,9.40
2023-05-17T02:21:55.437Z,9.40
2023-05-17T02:24:22.300Z,9.40
2023-05-17T02:26:49.372Z,9.40
2023-05-17T02:29:16.322Z,9.40
2023-05-17T02:31:43.174Z,9.40
2023-05-17T02:34:10.067Z,9.40
2023-05-17T02:36:36.918Z,9.30
2023-05-17T02:39:04.050Z,9.40
2023-05-17T02:41:31.432Z,9.40
2023-05-17T02:43:58.261Z,9.40
2023-05-17T02:46:25.100Z,9.40
2023-05-17T02:48:52.531Z,9.40
2023-05-17T02:51:19.350Z,9.40
2023-05-17T02:53:46.230Z,9.40
2023-05-17T02:56:13.496Z,9.40
2023-05-17T02:58:40.499Z,9.30
2023-05-17T03:01:07.306Z,9.20
2023-05-17T03:03:34.330Z,9.20
2023-05-17T03:06:02.115Z,9.10
2023-05-17T03:08:29.020Z,9.00
2023-05-17T03:10:56.368Z,9.00
2023-05-17T03:13:23.371Z,9.00
2023-05-17T03:15:50.557Z,9.00
2023-05-17T03:18:17.625Z,8.90
2023-05-17T03:20:44.785Z,8.90
2023-05-17T03:23:11.636Z,8.80
2023-05-17T03:25:38.533Z,8.80
2023-05-17T03:28:05.475Z,9.00
2023-05-17T03:30:32.457Z,9.00
2023-05-17T03:32:59.395Z,9.10
2023-05-17T03:35:26.475Z,9.00
2023-05-17T03:37:53.486Z,9.10
2023-05-17T03:40:20.610Z,9.20
2023-05-17T03:42:47.382Z,9.40
2023-05-17T03:45:15.014Z,9.40
2023-05-17T03:47:43.277Z,9.40
2023-05-17T03:50:10.635Z,9.40
2023-05-17T03:52:37.514Z,9.30
2023-05-17T03:55:04.836Z,9.40
2023-05-17T03:57:31.592Z,9.40
2023-05-17T03:59:59.226Z,9.30
2023-05-17T04:02:26.231Z,9.40
2023-05-17T04:04:53.461Z,9.30
2023-05-17T04:07:20.389Z,9.50
2023-05-17T04:09:47.618Z,9.50
2023-05-17T04:12:14.515Z,9.30
2023-05-17T04:14:41.397Z,9.30
2023-05-17T04:17:08.352Z,9.40
2023-05-17T04:19:35.347Z,9.40
2023-05-17T04:22:02.250Z,9.50
2023-05-17T04:24:29.153Z,9.60
2023-05-17T04:26:56.976Z,9.80
2023-05-17T04:29:23.826Z,9.70
2023-05-17T04:31:50.761Z,9.80
2023-05-17T04:34:17.613Z,9.80
2023-05-17T04:36:44.503Z,9.90
2023-05-17T04:39:11.486Z,9.80
2023-05-17T04:41:38.343Z,9.60
2023-05-17T04:44:07.600Z,9.50
2023-05-17T04:46:34.509Z,9.50
2023-05-17T04:49:01.765Z,9.50
2023-05-17T04:51:30.713Z,9.50
2023-05-17T04:54:00.949Z,9.70
2023-05-17T04:56:29.278Z,9.60
2023-05-17T04:58:56.029Z,9.80
2023-05-17T05:01:22.920Z,9.90
2023-05-17T05:03:49.873Z,10.10
2023-05-17T05:06:16.887Z,10.20
2023-05-17T05:08:43.830Z,10.30
2023-05-17T05:11:10.897Z,10.30
2023-05-17T05:13:39.122Z,10.40
2023-05-17T05:16:06.623Z,10.50
2023-05-17T05:18:33.834Z,10.60
2023-05-17T05:21:00.828Z,10.70
2023-05-17T05:23:27.718Z,10.50
2023-05-17T05:25:54.586Z,10.50
2023-05-17T05:28:21.441Z,10.50
2023-05-17T05:30:48.406Z,10.60
2023-05-17T05:33:15.396Z,10.70
2023-05-17T05:35:42.182Z,10.80
2023-05-17T05:38:09.047Z,10.80
2023-05-17T05:40:36.342Z,10.80
2023-05-17T05:43:03.126Z,10.70
2023-05-17T05:45:30.019Z,10.80
2023-05-17T05:47:57.082Z,10.80
2023-05-17T05:50:24.216Z,10.80
2023-05-17T05:52:51.422Z,10.80
2023-05-17T05:55:18.330Z,11.00
2023-05-17T05:57:45.717Z,11.20
2023-05-17T06:00:13.356Z,11.40
2023-05-17T06:02:40.161Z,11.50
2023-05-17T06:05:08.321Z,11.60
2023-05-17T06:07:35.219Z,11.60
2023-05-17T06:10:02.188Z,11.70
2023-05-17T06:12:31.129Z,11.70
2023-05-17T06:14:58.135Z,11.80
2023-05-17T06:17:25.430Z,11.80
2023-05-17T06:19:52.902Z,12.00
2023-05-17T06:22:20.096Z,12.10
2023-05-17T06:24:47.081Z,12.00
2023-05-17T06:27:13.978Z,11.90
2023-05-17T06:29:40.911Z,11.80
2023-05-17T06:32:07.908Z,11.90
2023-05-17T06:34:34.674Z,12.10
2023-05-17T06:37:01.831Z,12.30
2023-05-17T06:39:28.569Z,12.50
2023-05-17T06:41:55.427Z,12.70
2023-05-17T06:44:22.269Z,12.70
2023-05-17T06:46:49.111Z,12.70
2023-05-17T06:49:16.169Z,12.80
2023-05-17T06:51:43.086Z,12.90
2023-05-17T06:54:11.337Z,12.90
2023-05-17T06:56:38.099Z,12.90
2023-05-17T06:59:05.074Z,13.00
2023-05-17T07:01:31.972Z,13.20
2023-05-17T07:03:59.000Z,13.30
2023-05-17T07:06:26.195Z,13.30
2023-05-17T07:08:53.708Z,13.40
2023-05-17T07:11:20.518Z,13.50
2023-05-17T07:13:47.512Z,13.50
2023-05-17T07:16:14.370Z,13.70
2023-05-17T07:18:41.634Z,13.80
2023-05-17T07:21:15.420Z,13.90
2023-05-17T07:23:42.971Z,13.80
2023-05-17T07:26:10.262Z,13.90
2023-05-17T07:54:25.706Z,14.30
2023-05-17T07:56:55.040Z,14.30
2023-05-17T07:59:22.558Z,14.40
2023-05-17T08:01:49.397Z,14.40
2023-05-17T08:04:16.710Z,14.20
2023-05-17T08:06:46.243Z,14.10
2023-05-17T08:09:13.116Z,14.00
2023-05-17T08:11:46.061Z,13.80
2023-05-17T08:14:17.008Z,13.80
2023-05-17T08:16:45.332Z,13.70
2023-05-17T08:19:13.800Z,13.90
2023-05-17T08:21:42.240Z,13.90
2023-05-17T08:24:09.936Z,13.90
2023-05-17T08:26:37.857Z,14.10
2023-05-17T08:29:05.162Z,14.20
2023-05-17T08:31:32.948Z,14.30
2023-05-17T08:34:00.245Z,14.50
2023-05-17T08:36:28.578Z,14.60
2023-05-17T08:38:55.733Z,14.60
2023-05-17T08:41:22.898Z,14.70
2023-05-17T08:43:51.081Z,14.80
2023-05-17T08:46:22.653Z,14.70
2023-05-17T08:48:53.730Z,14.80
2023-05-17T08:51:21.813Z,14.80
2023-05-17T08:53:50.532Z,14.80
2023-05-17T08:56:19.581Z,14.70
2023-05-17T08:58:56.660Z,14.40
2023-05-17T09:01:26.752Z,14.30
2023-05-17T09:03:54.448Z,14.30
2023-05-17T09:06:23.126Z,14.20
2023-05-17T09:08:55.325Z,14.20
2023-05-17T09:11:28.159Z,14.20
2023-05-17T09:14:02.445Z,14.60
2023-05-17T09:16:30.778Z,14.90
2023-05-17T09:18:58.742Z,15.50
2023-05-17T09:21:27.036Z,16.10
2023-05-17T09:24:05.588Z,17.10
2023-05-17T09:26:50.410Z,18.10
2023-05-17T09:29:17.462Z,19.40
2023-05-17T09:31:44.992Z,20.30
2023-05-17T09:34:12.026Z,20.10
2023-05-17T09:36:42.839Z,19.60
2023-05-17T09:39:12.883Z,19.10
2023-05-17T09:41:46.618Z,18.70
2023-05-17T09:44:14.657Z,18.10
2023-05-17T09:46:45.942Z,17.50
2023-05-17T09:49:13.950Z,17.10
2023-05-17T09:51:42.906Z,16.50
2023-05-17T09:54:10.841Z,16.40
2023-05-17T09:56:38.455Z,16.40
2023-05-17T09:59:11.917Z,16.00
2023-05-17T10:01:41.450Z,15.90
2023-05-17T10:04:12.907Z,15.90
2023-05-17T10:09:13.806Z,16.10
2023-05-17T10:11:44.039Z,16.60
2023-05-17T10:14:19.145Z,16.90
2023-05-17T10:16:46.999Z,16.90
2023-05-17T10:19:15.039Z,16.90
2023-05-17T10:21:43.220Z,17.20
2023-05-17T10:24:12.091Z,17.70
2023-05-17T10:26:39.687Z,17.70
2023-05-17T10:29:07.726Z,17.40
2023-05-17T10:31:34.896Z,16.90
2023-05-17T10:34:03.608Z,16.80
2023-05-17T10:36:31.168Z,16.90
2023-05-17T10:38:59.312Z,16.90
2023-05-17T10:41:30.399Z,17.00
2023-05-17T10:43:58.549Z,17.30
2023-05-17T10:46:25.649Z,17.30
2023-05-17T10:48:57.225Z,17.50
2023-05-17T10:51:26.678Z,17.60
2023-05-17T10:54:18.278Z,18.10
2023-05-17T10:56:49.349Z,18.30
2023-05-17T10:59:22.804Z,18.40
2023-05-17T11:01:55.661Z,18.90
2023-05-17T11:04:29.626Z,19.60
2023-05-17T11:07:21.917Z,20.10
2023-05-17T11:10:14.421Z,20.60
2023-05-17T11:12:48.083Z,20.50
2023-05-17T11:15:16.888Z,19.80
2023-05-17T11:17:44.587Z,19.00
2023-05-17T11:20:27.068Z,18.10
2023-05-17T11:23:04.154Z,17.90
2023-05-17T11:25:36.272Z,18.30
2023-05-17T11:28:17.757Z,18.70
2023-05-17T11:30:51.345Z,19.80
2023-05-17T11:33:32.478Z,20.80
2023-05-17T11:36:06.451Z,21.00
2023-05-17T11:38:34.436Z,21.20
2023-05-17T11:43:50.879Z,22.40
2023-05-17T11:46:24.189Z,22.50
2023-05-17T11:48:52.971Z,22.30
2023-05-17T11:51:23.660Z,22.20
2023-05-17T11:53:55.760Z,21.90
2023-05-17T11:56:35.509Z,21.20
2023-05-17T11:59:09.741Z,20.70
2023-05-17T12:01:44.581Z,20.70
2023-05-17T12:04:11.586Z,20.20
2023-05-17T12:06:39.657Z,20.00
2023-05-17T12:09:10.890Z,19.60
2023-05-17T12:11:41.083Z,18.90
2023-05-17T12:14:08.070Z,18.80
2023-05-17T12:16:49.085Z,19.40
2023-05-17T12:19:21.203Z,20.30
2023-05-17T12:21:48.754Z,20.90
2023-05-17T12:24:16.392Z,21.30
2023-05-17T12:26:49.542Z,21.80
2023-05-17T12:29:22.018Z,22.30
2023-05-17T12:31:52.514Z,22.80
2023-05-17T12:34:19.763Z,23.40
2023-05-17T12:36:47.023Z,23.30
2023-05-17T12:39:16.028Z,23.40
2023-05-17T12:41:43.863Z,23.60
2023-05-17T12:44:15.449Z,23.90
2023-05-17T12:46:43.213Z,24.10
2023-05-17T12:49:12.076Z,24.00
2023-05-17T12:51:46.432Z,24.10
2023-05-17T12:54:16.369Z,24.30
2023-05-17T12:56:44.982Z,24.30
2023-05-17T12:59:16.803Z,23.70
2023-05-17T13:01:45.969Z,22.80
2023-05-17T13:04:14.278Z,23.50
2023-05-17T13:06:53.519Z,23.70
2023-05-17T13:09:25.104Z,24.10
2023-05-17T13:11:52.939Z,24.00
2023-05-17T13:14:46.881Z,24.40
2023-05-17T13:17:44.788Z,24.50
2023-05-17T13:20:12.083Z,24.40
2023-05-17T13:22:57.313Z,23.60
2023-05-17T13:25:24.345Z,23.00
2023-05-17T13:27:53.150Z,22.90
2023-05-17T13:30:19.973Z,23.10
2023-05-17T13:32:47.608Z,23.10
2023-05-17T13:35:14.535Z,23.10
2023-05-17T13:37:41.417Z,23.50
2023-05-17T13:40:08.759Z,24.20
2023-05-17T13:42:36.588Z,24.50
2023-05-17T13:45:05.049Z,24.50
2023-05-17T13:47:32.553Z,24.30
2023-05-17T13:50:00.936Z,24.10
2023-05-17T13:52:28.212Z,24.50
2023-05-17T13:54:55.880Z,24.40
2023-05-17T13:57:22.779Z,24.00
2023-05-17T13:59:49.875Z,23.70
2023-05-17T14:02:17.599Z,23.90
2023-05-17T14:04:44.492Z,24.40
2023-05-17T14:07:11.769Z,25.10
2023-05-17T14:09:39.882Z,25.00
2023-05-17T14:12:07.019Z,24.80
2023-05-17T14:14:34.770Z,25.20
2023-05-17T14:17:01.894Z,25.70
2023-05-17T14:19:29.000Z,26.40
2023-05-17T14:21:56.162Z,27.10
2023-05-17T14:24:22.996Z,27.60
2023-05-17T14:26:50.863Z,27.50
2023-05-17T14:29:17.793Z,27.60
2023-05-17T14:31:44.728Z,26.60
2023-05-17T14:34:11.993Z,26.60
2023-05-17T14:36:39.426Z,26.30
2023-05-17T14:39:06.361Z,25.90
2023-05-17T14:41:33.233Z,25.40
2023-05-17T14:44:00.084Z,25.00
2023-05-17T14:46:27.093Z,24.70
2023-05-17T14:48:56.258Z,25.50
2023-05-17T14:51:23.208Z,26.30
2023-05-17T14:53:50.148Z,26.60
2023-05-17T14:56:17.713Z,26.60
2023-05-17T14:58:44.600Z,26.90
2023-05-17T15:01:11.657Z,27.00
2023-05-17T15:03:38.525Z,26.40
2023-05-17T15:06:08.180Z,26.50
2023-05-17T15:08:39.264Z,27.00
2023-05-17T15:11:06.188Z,27.20
2023-05-17T15:13:33.100Z,27.40
2023-05-17T15:16:00.300Z,27.60
2023-05-17T15:18:27.414Z,27.80
2023-05-17T15:20:54.480Z,27.80
2023-05-17T15:23:21.761Z,27.60
2023-05-17T15:25:48.665Z,27.30
2023-05-17T15:28:15.945Z,27.40
2023-05-17T15:30:43.011Z,27.20
2023-05-17T15:33:10.385Z,26.60
2023-05-17T15:35:41.711Z,26.00
2023-05-17T15:38:08.819Z,25.50
2023-05-17T15:40:35.633Z,25.00
2023-05-17T15:43:02.443Z,24.90
2023-05-17T15:45:29.606Z,24.80
2023-05-17T15:47:57.310Z,24.70
2023-05-17T15:50:24.397Z,24.40
2023-05-17T15:52:51.358Z,23.90
2023-05-17T15:55:18.485Z,23.60
2023-05-17T15:57:46.609Z,24.00
2023-05-17T16:00:14.338Z,24.80
2023-05-17T16:02:41.266Z,25.20
2023-05-17T16:05:08.724Z,25.80
2023-05-17T16:07:35.552Z,25.80
2023-05-17T16:10:02.558Z,25.50
2023-05-17T16:12:29.611Z,25.00
2023-05-17T16:14:56.815Z,24.50
2023-05-17T16:17:23.687Z,24.50
2023-05-17T16:19:50.611Z,24.70
2023-05-17T16:22:17.491Z,25.30
2023-05-17T16:24:44.207Z,25.90
2023-05-17T16:27:11.110Z,25.60
2023-05-17T16:54:16.385Z,22.20
2023-05-17T16:56:43.269Z,22.40
2023-05-17T16:59:10.331Z,22.90
2023-05-17T17:01:37.472Z,23.60
2023-05-17T17:04:04.480Z,23.60
2023-05-17T17:06:33.972Z,23.50
2023-05-17T17:09:01.847Z,23.10
2023-05-17T17:11:28.695Z,22.50
2023-05-17T17:13:55.523Z,22.10
2023-05-17T17:16:22.759Z,22.10
2023-05-17T17:18:49.910Z,21.90
2023-05-17T17:21:17.361Z,21.60
2023-05-17T17:23:44.570Z,21.20
2023-05-17T17:26:11.748Z,21.00
2023-05-17T17:28:38.840Z,20.80
2023-05-17T17:31:06.728Z,20.40
2023-05-17T17:33:34.466Z,20.20
2023-05-17T17:36:02.598Z,20.10
2023-05-17T17:38:29.553Z,19.90
2023-05-17T17:40:56.569Z,19.80
2023-05-17T17:43:23.582Z,19.70
2023-05-17T17:45:50.747Z,19.50
2023-05-17T17:48:17.752Z,19.50
2023-05-17T17:50:44.710Z,19.30
2023-05-17T17:53:11.587Z,19.10
2023-05-17T17:55:38.510Z,19.00
2023-05-17T17:58:05.357Z,18.90
2023-05-17T18:00:32.590Z,18.80
2023-05-17T18:02:59.552Z,18.70
2023-05-17T18:05:26.637Z,18.50
2023-05-17T18:07:53.483Z,18.40
2023-05-17T18:10:20.419Z,18.40
2023-05-17T18:12:48.218Z,18.50
2023-05-17T18:15:16.587Z,18.40
2023-05-17T18:17:43.526Z,18.30
2023-05-17T18:20:10.500Z,18.30
2023-05-17T18:22:37.353Z,18.30
2023-05-17T18:25:04.532Z,18.20
2023-05-17T18:27:31.618Z,18.10
2023-05-17T18:29:58.560Z,18.10
2023-05-17T18:32:25.727Z,18.00
2023-05-17T18:34:53.033Z,17.80
2023-05-17T18:37:19.907Z,17.70
2023-05-17T18:39:46.934Z,17.50
2023-05-17T18:42:13.868Z,17.40
2023-05-17T18:44:40.792Z,17.20
2023-05-17T18:47:08.717Z,17.10
2023-05-17T18:49:36.523Z,16.90
2023-05-17T18:52:03.466Z,16.80
2023-05-17T18:54:30.331Z,16.70
2023-05-17T18:56:57.482Z,16.50
2023-05-17T18:59:24.368Z,16.50
2023-05-17T19:01:51.350Z,16.40
2023-05-17T19:04:18.225Z,16.20
2023-05-17T19:06:45.559Z,16.10
2023-05-17T19:09:12.435Z,16.00
2023-05-17T19:11:40.028Z,15.90
2023-05-17T19:14:07.447Z,15.80
2023-05-17T19:16:34.355Z,15.70
2023-05-17T19:19:01.579Z,15.70
2023-05-17T19:21:29.118Z,15.50
2023-05-17T19:23:56.164Z,15.40
2023-05-17T19:26:23.146Z,15.30
2023-05-17T19:28:50.851Z,15.10
2023-05-17T19:31:18.093Z,15.10
2023-05-17T19:33:46.074Z,15.00
2023-05-17T19:36:13.079Z,14.90
2023-05-17T19:38:40.376Z,14.90
2023-05-17T19:41:09.238Z,14.80
2023-05-17T19:43:37.009Z,14.80
2023-05-17T19:46:09.212Z,14.60
2023-05-17T19:48:36.622Z,14.60
2023-05-17T19:51:04.309Z,14.50
2023-05-17T19:53:40.398Z,14.40
2023-05-17T19:56:15.893Z,14.40
2023-05-17T19:58:43.212Z,14.40
2023-05-17T20:01:10.802Z,14.30
2023-05-17T20:03:37.900Z,14.20
2023-05-17T20:06:05.181Z,14.20
2023-05-17T20:08:32.100Z,14.10
2023-05-17T20:10:58.899Z,14.00
2023-05-17T20:13:28.722Z,14.00
2023-05-17T20:15:55.867Z,13.90
2023-05-17T20:18:23.336Z,13.90
2023-05-17T20:20:51.526Z,13.80
2023-05-17T20:23:19.047Z,13.90
2023-05-17T20:25:46.348Z,13.80
2023-05-17T20:28:13.701Z,13.80
2023-05-17T20:30:44.810Z,13.70
2023-05-17T20:33:13.797Z,13.70
2023-05-17T20:35:40.987Z,13.70
2023-05-17T20:38:07.939Z,13.60
2023-05-17T20:40:35.866Z,13.60
2023-05-17T20:43:03.492Z,13.50
2023-05-17T20:45:30.689Z,13.50
2023-05-17T20:47:58.057Z,13.40
2023-05-17T20:50:25.045Z,13.40
2023-05-17T20:52:52.186Z,13.30
2023-05-17T20:55:18.966Z,13.20
2023-05-17T20:57:46.860Z,13.20
2023-05-17T21:00:16.854Z,13.10
2023-05-17T21:02:44.068Z,13.10
2023-05-17T21:05:10.930Z,13.00
2023-05-17T21:07:42.620Z,13.00
2023-05-17T21:10:10.091Z,12.90
2023-05-17T21:12:36.940Z,12.90
2023-05-17T21:15:16.344Z,12.90
2023-05-17T21:17:44.264Z,12.80
2023-05-17T21:20:11.883Z,12.70
2023-05-17T21:22:38.904Z,12.70
2023-05-17T21:25:06.365Z,12.70
2023-05-17T21:27:36.335Z,12.60
2023-05-17T21:30:03.246Z,12.60
2023-05-17T21:32:30.311Z,12.50
2023-05-17T21:34:59.541Z,12.50
2023-05-17T21:37:26.391Z,12.50
2023-05-17T21:39:53.341Z,12.40
2023-05-17T21:42:21.328Z,12.30
2023-05-17T21:44:48.173Z,12.30
2023-05-17T21:50:06.815Z,12.20
2023-05-17T21:52:34.006Z,12.10
2023-05-17T21:55:00.998Z,12.10
2023-05-17T21:57:28.147Z,12.10
2023-05-17T21:59:55.026Z,12.00
2023-05-17T22:02:21.883Z,12.00
2023-05-17T22:04:48.797Z,12.00
2023-05-17T22:07:15.622Z,11.90
2023-05-17T22:09:42.578Z,11.90
2023-05-17T22:12:12.141Z,11.80
2023-05-17T22:14:43.232Z,11.80
2023-05-17T22:17:10.266Z,11.70
2023-05-17T22:19:40.820Z,11.70
2023-05-17T22:22:08.594Z,11.70
2023-05-17T22:24:35.881Z,11.60
2023-05-17T22:27:03.632Z,11.60
2023-05-17T22:29:30.535Z,11.50
2023-05-17T22:31:57.370Z,11.50
2023-05-17T22:34:24.268Z,11.50
2023-05-17T22:36:51.125Z,11.40
2023-05-17T22:39:17.896Z,11.50
2023-05-17T22:41:44.702Z,11.40
2023-05-17T22:44:11.577Z,11.40
2023-05-17T22:46:38.750Z,11.30
2023-05-17T22:49:05.662Z,11.30
2023-05-17T22:51:35.365Z,11.30
2023-05-17T22:54:03.288Z,11.20
2023-05-17T22:56:30.416Z,11.20
2023-05-17T22:58:58.319Z,11.10
2023-05-17T23:01:25.772Z,11.10
2023-05-17T23:03:52.928Z,11.10
2023-05-17T23:06:22.209Z,11.10
2023-05-17T23:08:49.709Z,11.00
2023-05-17T23:11:18.025Z,11.00
2023-05-17T23:13:45.102Z,10.90
2023-05-17T23:16:13.995Z,10.90
2023-05-17T23:18:41.372Z,10.90
2023-05-17T23:21:08.331Z,10.90
2023-05-17T23:23:38.119Z,10.80
2023-05-17T23:26:06.031Z,10.80
2023-05-17T23:28:33.123Z,10.80
2023-05-17T23:31:01.554Z,10.70
2023-05-17T23:33:31.169Z,10.70
2023-05-17T23:35:58.835Z,10.70
2023-05-17T23:38:26.448Z,10.60
2023-05-17T23:40:54.143Z,10.60
2023-05-17T23:43:21.537Z,10.50
2023-05-17T23:45:48.749Z,10.50
2023-05-17T23:48:16.229Z,10.40
2023-05-17T23:50:43.180Z,10.40
2023-05-17T23:53:10.172Z,10.30
2023-05-17T23:55:37.640Z,10.20
2023-05-17T23:58:04.429Z,10.10
